sensor_id;sensor_type;location;lat;lon;timestamp;temperature;humidity
15364;DHT22;7781;49.690;6.472;2022-11-04T00:00:26;9.70;99.90
15364;DHT22;7781;49.690;6.472;2022-11-04T00:02:56;9.70;99.90
15364;DHT22;7781;49.690;6.472;2022-11-04T00:05:24;9.70;99.90
15364;DHT22;7781;49.690;6.472;2022-11-04T00:07:53;9.80;99.90
15364;DHT22;7781;49.690;6.472;2022-11-04T00:10:39;9.80;99.90
15364;DHT22;7781;49.690;6.472;2022-11-04T00:13:27;9.80;99.90
15364;DHT22;7781;49.690;6.472;2022-11-04T00:15:59;9.80;99.90
15364;DHT22;7781;49.690;6.472;2022-11-04T00:18:45;9.80;99.90
15364;DHT22;7781;49.690;6.472;2022-11-04T00:21:13;9.80;99.90
15364;DHT22;7781;49.690;6.472;2022-11-04T00:23:59;9.70;99.90
15364;DHT22;7781;49.690;6.472;2022-11-04T00:26:46;9.70;99.90
15364;DHT22;7781;49.690;6.472;2022-11-04T00:29:32;9.70;99.90
15364;DHT22;7781;49.690;6.472;2022-11-04T00:32:00;9.70;99.90
15364;DHT22;7781;49.690;6.472;2022-11-04T00:34:45;9.70;99.90
15364;DHT22;7781;49.690;6.472;2022-11-04T00:37:14;9.60;99.90
15364;DHT22;7781;49.690;6.472;2022-11-04T00:39:42;9.70;99.90
15364;DHT22;7781;49.690;6.472;2022-11-04T00:42:12;9.70;99.90
15364;DHT22;7781;49.690;6.472;2022-11-04T00:44:40;9.70;99.90
15364;DHT22;7781;49.690;6.472;2022-11-04T00:47:08;9.70;99.90
15364;DHT22;7781;49.690;6.472;2022-11-04T00:49:36;9.60;99.90
15364;DHT22;7781;49.690;6.472;2022-11-04T00:52:04;9.60;99.90
15364;DHT22;7781;49.690;6.472;2022-11-04T00:54:33;9.70;99.90
15364;DHT22;7781;49.690;6.472;2022-11-04T00:57:01;9.60;99.90
15364;DHT22;7781;49.690;6.472;2022-11-04T00:59:30;9.60;99.90
15364;DHT22;7781;49.690;6.472;2022-11-04T01:01:59;9.60;99.90
15364;DHT22;7781;49.690;6.472;2022-11-04T01:04:27;9.60;99.90
15364;DHT22;7781;49.690;6.472;2022-11-04T01:06:56;9.60;99.90
15364;DHT22;7781;49.690;6.472;2022-11-04T01:09:24;9.60;99.90
15364;DHT22;7781;49.690;6.472;2022-11-04T01:11:52;9.60;99.90
15364;DHT22;7781;49.690;6.472;2022-11-04T01:14:20;9.50;99.90
15364;DHT22;7781;49.690;6.472;2022-11-04T01:16:50;9.50;99.90
15364;DHT22;7781;49.690;6.472;2022-11-04T01:19:18;9.50;99.90
15364;DHT22;7781;49.690;6.472;2022-11-04T01:21:49;9.50;99.90
15364;DHT22;7781;49.690;6.472;2022-11-04T01:24:18;9.50;99.90
15364;DHT22;7781;49.690;6.472;2022-11-04T01:26:46;9.50;99.90
15364;DHT22;7781;49.690;6.472;2022-11-04T01:29:14;9.60;99.90
15364;DHT22;7781;49.690;6.472;2022-11-04T01:31:42;9.60;99.90
15364;DHT22;7781;49.690;6.472;2022-11-04T01:34:12;9.60;99.90
15364;DHT22;7781;49.690;6.472;2022-11-04T01:36:40;9.60;99.90
15364;DHT22;7781;49.690;6.472;2022-11-04T01:39:08;9.60;99.90
15364;DHT22;7781;49.690;6.472;2022-11-04T01:41:38;9.60;99.90
15364;DHT22;7781;49.690;6.472;2022-11-04T01:47:13;9.50;99.90
15364;DHT22;7781;49.690;6.472;2022-11-04T01:49:47;9.50;99.90
15364;DHT22;7781;49.690;6.472;2022-11-04T01:52:21;9.50;99.90
15364;DHT22;7781;49.690;6.472;2022-11-04T01:54:52;9.50;99.90
15364;DHT22;7781;49.690;6.472;2022-11-04T01:57:25;9.50;99.90
15364;DHT22;7781;49.690;6.472;2022-11-04T01:59:58;9.40;99.90
15364;DHT22;7781;49.690;6.472;2022-11-04T02:02:45;9.40;99.90
15364;DHT22;7781;49.690;6.472;2022-11-04T02:05:18;9.40;99.90
15364;DHT22;7781;49.690;6.472;2022-11-04T02:07:49;9.40;99.90
15364;DHT22;7781;49.690;6.472;2022-11-04T02:10:19;9.40;99.90
15364;DHT22;7781;49.690;6.472;2022-11-04T02:12:49;9.30;99.90
15364;DHT22;7781;49.690;6.472;2022-11-04T02:15:22;9.30;99.90
15364;DHT22;7781;49.690;6.472;2022-11-04T02:18:11;9.40;99.90
15364;DHT22;7781;49.690;6.472;2022-11-04T02:21:16;9.30;99.90
15364;DHT22;7781;49.690;6.472;2022-11-04T02:24:23;9.30;99.90
15364;DHT22;7781;49.690;6.472;2022-11-04T02:27:17;9.40;99.90
15364;DHT22;7781;49.690;6.472;2022-11-04T02:30:03;9.30;99.90
15364;DHT22;7781;49.690;6.472;2022-11-04T02:35:35;9.20;99.90
15364;DHT22;7781;49.690;6.472;2022-11-04T02:38:11;9.20;99.90
15364;DHT22;7781;49.690;6.472;2022-11-04T02:40:46;9.30;99.90
15364;DHT22;7781;49.690;6.472;2022-11-04T02:43:21;9.20;99.90
15364;DHT22;7781;49.690;6.472;2022-11-04T02:45:58;9.30;99.90
15364;DHT22;7781;49.690;6.472;2022-11-04T02:48:36;9.30;99.90
15364;DHT22;7781;49.690;6.472;2022-11-04T02:51:10;9.30;99.90
15364;DHT22;7781;49.690;6.472;2022-11-04T02:53:43;9.20;99.90
15364;DHT22;7781;49.690;6.472;2022-11-04T02:56:15;9.10;99.90
15364;DHT22;7781;49.690;6.472;2022-11-04T02:58:48;9.10;99.90
15364;DHT22;7781;49.690;6.472;2022-11-04T03:01:20;9.00;99.90
15364;DHT22;7781;49.690;6.472;2022-11-04T03:03:54;9.10;99.90
15364;DHT22;7781;49.690;6.472;2022-11-04T03:06:28;9.10;99.90
15364;DHT22;7781;49.690;6.472;2022-11-04T03:08:58;9.10;99.90
15364;DHT22;7781;49.690;6.472;2022-11-04T03:11:27;9.20;99.90
15364;DHT22;7781;49.690;6.472;2022-11-04T03:13:58;9.30;99.90
15364;DHT22;7781;49.690;6.472;2022-11-04T03:16:34;9.40;99.90
15364;DHT22;7781;49.690;6.472;2022-11-04T03:19:10;9.40;99.90
15364;DHT22;7781;49.690;6.472;2022-11-04T03:21:44;9.40;99.90
15364;DHT22;7781;49.690;6.472;2022-11-04T03:24:15;9.40;99.90
15364;DHT22;7781;49.690;6.472;2022-11-04T03:26:46;9.40;99.90
15364;DHT22;7781;49.690;6.472;2022-11-04T03:29:22;9.40;99.90
15364;DHT22;7781;49.690;6.472;2022-11-04T03:32:00;9.30;99.90
15364;DHT22;7781;49.690;6.472;2022-11-04T03:34:32;9.30;99.90
15364;DHT22;7781;49.690;6.472;2022-11-04T03:37:00;9.30;99.90
15364;DHT22;7781;49.690;6.472;2022-11-04T03:39:29;9.40;99.90
15364;DHT22;7781;49.690;6.472;2022-11-04T03:42:01;9.50;99.90
15364;DHT22;7781;49.690;6.472;2022-11-04T03:44:48;9.50;99.90
15364;DHT22;7781;49.690;6.472;2022-11-04T03:47:20;9.50;99.90
15364;DHT22;7781;49.690;6.472;2022-11-04T03:49:51;9.50;99.90
15364;DHT22;7781;49.690;6.472;2022-11-04T03:52:20;9.50;99.90
15364;DHT22;7781;49.690;6.472;2022-11-04T03:54:48;9.50;99.90
15364;DHT22;7781;49.690;6.472;2022-11-04T03:57:26;9.40;99.90
15364;DHT22;7781;49.690;6.472;2022-11-04T04:00:10;9.40;99.90
15364;DHT22;7781;49.690;6.472;2022-11-04T04:02:48;9.40;99.90
15364;DHT22;7781;49.690;6.472;2022-11-04T04:05:20;9.40;99.90
15364;DHT22;7781;49.690;6.472;2022-11-04T04:07:52;9.40;99.90
15364;DHT22;7781;49.690;6.472;2022-11-04T04:10:27;9.40;99.90
15364;DHT22;7781;49.690;6.472;2022-11-04T04:13:18;9.40;99.90
15364;DHT22;7781;49.690;6.472;2022-11-04T04:15:51;9.40;99.90
15364;DHT22;7781;49.690;6.472;2022-11-04T04:18:28;9.40;99.90
15364;DHT22;7781;49.690;6.472;2022-11-04T04:21:00;9.30;99.90
15364;DHT22;7781;49.690;6.472;2022-11-04T04:23:30;9.30;99.90
15364;DHT22;7781;49.690;6.472;2022-11-04T04:26:19;9.30;99.90
15364;DHT22;7781;49.690;6.472;2022-11-04T04:29:06;9.20;99.90
15364;DHT22;7781;49.690;6.472;2022-11-04T04:31:37;9.20;99.90
15364;DHT22;7781;49.690;6.472;2022-11-04T04:34:22;9.10;99.90
15364;DHT22;7781;49.690;6.472;2022-11-04T04:36:56;9.10;99.90
15364;DHT22;7781;49.690;6.472;2022-11-04T04:39:31;9.20;99.90
15364;DHT22;7781;49.690;6.472;2022-11-04T04:42:18;9.20;99.90
15364;DHT22;7781;49.690;6.472;2022-11-04T04:45:05;9.20;99.90
15364;DHT22;7781;49.690;6.472;2022-11-04T04:47:38;9.20;99.90
15364;DHT22;7781;49.690;6.472;2022-11-04T04:50:10;9.20;99.90
15364;DHT22;7781;49.690;6.472;2022-11-04T04:52:40;9.20;99.90
15364;DHT22;7781;49.690;6.472;2022-11-04T04:55:10;9.10;99.90
15364;DHT22;7781;49.690;6.472;2022-11-04T04:57:39;9.10;99.90
15364;DHT22;7781;49.690;6.472;2022-11-04T05:00:10;9.20;99.90
15364;DHT22;7781;49.690;6.472;2022-11-04T05:02:38;9.10;99.90
15364;DHT22;7781;49.690;6.472;2022-11-04T05:05:09;9.10;99.90
15364;DHT22;7781;49.690;6.472;2022-11-04T05:07:38;9.10;99.90
15364;DHT22;7781;49.690;6.472;2022-11-04T05:10:08;9.10;99.90
15364;DHT22;7781;49.690;6.472;2022-11-04T05:12:38;9.10;99.90
15364;DHT22;7781;49.690;6.472;2022-11-04T05:15:24;9.10;99.90
15364;DHT22;7781;49.690;6.472;2022-11-04T05:17:56;9.10;99.90
15364;DHT22;7781;49.690;6.472;2022-11-04T05:20:27;9.10;99.90
15364;DHT22;7781;49.690;6.472;2022-11-04T05:22:56;9.00;99.90
15364;DHT22;7781;49.690;6.472;2022-11-04T05:25:24;9.10;99.90
15364;DHT22;7781;49.690;6.472;2022-11-04T05:27:52;9.00;99.90
15364;DHT22;7781;49.690;6.472;2022-11-04T05:30:20;9.00;99.90
15364;DHT22;7781;49.690;6.472;2022-11-04T05:32:48;9.00;99.90
15364;DHT22;7781;49.690;6.472;2022-11-04T05:35:16;9.00;99.90
15364;DHT22;7781;49.690;6.472;2022-11-04T05:37:46;9.00;99.90
15364;DHT22;7781;49.690;6.472;2022-11-04T05:40:14;9.00;99.90
15364;DHT22;7781;49.690;6.472;2022-11-04T05:42:42;9.00;99.90
15364;DHT22;7781;49.690;6.472;2022-11-04T05:45:11;9.00;99.90
15364;DHT22;7781;49.690;6.472;2022-11-04T05:47:39;9.10;99.90
15364;DHT22;7781;49.690;6.472;2022-11-04T05:50:07;9.10;99.90
15364;DHT22;7781;49.690;6.472;2022-11-04T05:52:36;9.10;99.90
15364;DHT22;7781;49.690;6.472;2022-11-04T05:55:06;9.00;99.90
15364;DHT22;7781;49.690;6.472;2022-11-04T05:57:34;9.00;99.90
15364;DHT22;7781;49.690;6.472;2022-11-04T06:00:04;9.00;99.90
15364;DHT22;7781;49.690;6.472;2022-11-04T06:02:33;8.90;99.90
15364;DHT22;7781;49.690;6.472;2022-11-04T06:05:01;8.90;99.90
15364;DHT22;7781;49.690;6.472;2022-11-04T06:07:29;8.80;99.90
15364;DHT22;7781;49.690;6.472;2022-11-04T06:09:57;8.80;99.90
15364;DHT22;7781;49.690;6.472;2022-11-04T06:12:27;8.70;99.90
15364;DHT22;7781;49.690;6.472;2022-11-04T06:14:55;8.70;99.90
15364;DHT22;7781;49.690;6.472;2022-11-04T06:17:23;8.70;99.90
15364;DHT22;7781;49.690;6.472;2022-11-04T06:19:52;8.70;99.90
15364;DHT22;7781;49.690;6.472;2022-11-04T06:22:20;8.70;99.90
15364;DHT22;7781;49.690;6.472;2022-11-04T06:24:48;8.70;99.90
15364;DHT22;7781;49.690;6.472;2022-11-04T06:27:16;8.80;99.90
15364;DHT22;7781;49.690;6.472;2022-11-04T06:29:45;8.80;99.90
15364;DHT22;7781;49.690;6.472;2022-11-04T06:32:16;8.90;99.90
15364;DHT22;7781;49.690;6.472;2022-11-04T06:34:44;8.90;99.90
15364;DHT22;7781;49.690;6.472;2022-11-04T06:37:13;8.90;99.90
15364;DHT22;7781;49.690;6.472;2022-11-04T06:39:41;9.00;99.90
15364;DHT22;7781;49.690;6.472;2022-11-04T06:42:09;9.00;99.90
15364;DHT22;7781;49.690;6.472;2022-11-04T06:44:37;9.00;99.90
15364;DHT22;7781;49.690;6.472;2022-11-04T06:47:07;9.00;99.90
15364;DHT22;7781;49.690;6.472;2022-11-04T06:49:36;9.00;99.90
15364;DHT22;7781;49.690;6.472;2022-11-04T06:52:04;9.00;99.90
15364;DHT22;7781;49.690;6.472;2022-11-04T06:54:32;9.00;99.90
15364;DHT22;7781;49.690;6.472;2022-11-04T06:57:01;9.00;99.90
15364;DHT22;7781;49.690;6.472;2022-11-04T06:59:29;9.10;99.90
15364;DHT22;7781;49.690;6.472;2022-11-04T07:01:59;9.10;99.90
15364;DHT22;7781;49.690;6.472;2022-11-04T07:04:28;9.10;99.90
15364;DHT22;7781;49.690;6.472;2022-11-04T07:06:56;9.10;99.90
15364;DHT22;7781;49.690;6.472;2022-11-04T07:09:24;9.10;99.90
15364;DHT22;7781;49.690;6.472;2022-11-04T07:11:52;9.20;99.90
15364;DHT22;7781;49.690;6.472;2022-11-04T07:14:20;9.20;99.90
15364;DHT22;7781;49.690;6.472;2022-11-04T07:16:49;9.20;99.90
15364;DHT22;7781;49.690;6.472;2022-11-04T07:19:18;9.20;99.90
15364;DHT22;7781;49.690;6.472;2022-11-04T07:21:47;9.20;99.90
15364;DHT22;7781;49.690;6.472;2022-11-04T07:24:15;9.20;99.90
15364;DHT22;7781;49.690;6.472;2022-11-04T07:26:43;9.20;99.90
15364;DHT22;7781;49.690;6.472;2022-11-04T07:29:11;9.30;99.90
15364;DHT22;7781;49.690;6.472;2022-11-04T07:31:39;9.30;99.90
15364;DHT22;7781;49.690;6.472;2022-11-04T07:34:08;9.30;99.90
15364;DHT22;7781;49.690;6.472;2022-11-04T07:36:36;9.30;99.90
15364;DHT22;7781;49.690;6.472;2022-11-04T07:39:05;9.30;99.90
15364;DHT22;7781;49.690;6.472;2022-11-04T07:41:33;9.30;99.90
15364;DHT22;7781;49.690;6.472;2022-11-04T07:44:02;9.30;99.90
15364;DHT22;7781;49.690;6.472;2022-11-04T07:46:31;9.30;99.90
15364;DHT22;7781;49.690;6.472;2022-11-04T07:48:59;9.30;99.90
15364;DHT22;7781;49.690;6.472;2022-11-04T07:51:28;9.30;99.90
15364;DHT22;7781;49.690;6.472;2022-11-04T07:53:58;9.30;99.90
15364;DHT22;7781;49.690;6.472;2022-11-04T07:56:27;9.30;99.90
15364;DHT22;7781;49.690;6.472;2022-11-04T07:58:56;9.30;99.90
15364;DHT22;7781;49.690;6.472;2022-11-04T08:01:24;9.30;99.90
15364;DHT22;7781;49.690;6.472;2022-11-04T08:03:55;9.30;99.90
15364;DHT22;7781;49.690;6.472;2022-11-04T08:06:23;9.30;99.90
15364;DHT22;7781;49.690;6.472;2022-11-04T08:08:51;9.40;99.90
15364;DHT22;7781;49.690;6.472;2022-11-04T08:11:22;9.40;99.90
15364;DHT22;7781;49.690;6.472;2022-11-04T08:13:53;9.40;99.90
15364;DHT22;7781;49.690;6.472;2022-11-04T08:16:23;9.40;99.90
15364;DHT22;7781;49.690;6.472;2022-11-04T08:18:59;9.30;99.90
15364;DHT22;7781;49.690;6.472;2022-11-04T08:21:29;9.40;99.90
15364;DHT22;7781;49.690;6.472;2022-11-04T08:23:58;9.40;99.90
15364;DHT22;7781;49.690;6.472;2022-11-04T08:26:28;9.40;99.90
15364;DHT22;7781;49.690;6.472;2022-11-04T08:28:59;9.50;99.90
15364;DHT22;7781;49.690;6.472;2022-11-04T08:31:30;9.40;99.90
15364;DHT22;7781;49.690;6.472;2022-11-04T08:33:59;9.40;99.90
15364;DHT22;7781;49.690;6.472;2022-11-04T08:36:31;9.50;99.90
15364;DHT22;7781;49.690;6.472;2022-11-04T08:39:00;9.50;99.90
15364;DHT22;7781;49.690;6.472;2022-11-04T08:41:37;9.50;99.90
15364;DHT22;7781;49.690;6.472;2022-11-04T08:44:09;9.60;99.90
15364;DHT22;7781;49.690;6.472;2022-11-04T08:46:39;9.60;99.90
15364;DHT22;7781;49.690;6.472;2022-11-04T08:49:07;9.60;99.90
15364;DHT22;7781;49.690;6.472;2022-11-04T08:51:43;9.60;99.90
15364;DHT22;7781;49.690;6.472;2022-11-04T08:54:12;9.70;99.90
15364;DHT22;7781;49.690;6.472;2022-11-04T08:56:40;9.70;99.90
15364;DHT22;7781;49.690;6.472;2022-11-04T08:59:10;9.70;99.90
15364;DHT22;7781;49.690;6.472;2022-11-04T09:01:38;9.80;99.90
15364;DHT22;7781;49.690;6.472;2022-11-04T09:04:09;9.80;99.90
15364;DHT22;7781;49.690;6.472;2022-11-04T09:06:41;9.70;99.90
15364;DHT22;7781;49.690;6.472;2022-11-04T09:09:12;9.70;99.90
15364;DHT22;7781;49.690;6.472;2022-11-04T09:11:42;9.70;99.90
15364;DHT22;7781;49.690;6.472;2022-11-04T09:14:12;9.80;99.90
15364;DHT22;7781;49.690;6.472;2022-11-04T09:16:41;9.80;99.90
15364;DHT22;7781;49.690;6.472;2022-11-04T09:19:09;9.90;99.90
15364;DHT22;7781;49.690;6.472;2022-11-04T09:21:37;9.90;99.90
15364;DHT22;7781;49.690;6.472;2022-11-04T09:24:06;9.90;99.90
15364;DHT22;7781;49.690;6.472;2022-11-04T09:26:34;10.00;99.90
15364;DHT22;7781;49.690;6.472;2022-11-04T09:29:02;10.10;99.90
15364;DHT22;7781;49.690;6.472;2022-11-04T09:31:33;10.20;99.90
15364;DHT22;7781;49.690;6.472;2022-11-04T09:34:02;10.30;99.90
15364;DHT22;7781;49.690;6.472;2022-11-04T09:36:30;10.40;99.90
15364;DHT22;7781;49.690;6.472;2022-11-04T09:38:58;10.60;99.90
15364;DHT22;7781;49.690;6.472;2022-11-04T09:41:48;10.60;99.90
15364;DHT22;7781;49.690;6.472;2022-11-04T09:44:22;10.70;99.90
15364;DHT22;7781;49.690;6.472;2022-11-04T09:46:56;10.70;99.90
15364;DHT22;7781;49.690;6.472;2022-11-04T09:49:26;10.70;99.90
15364;DHT22;7781;49.690;6.472;2022-11-04T09:51:58;10.60;99.90
15364;DHT22;7781;49.690;6.472;2022-11-04T09:54:33;10.70;99.90
15364;DHT22;7781;49.690;6.472;2022-11-04T09:57:16;10.70;99.90
15364;DHT22;7781;49.690;6.472;2022-11-04T09:59:45;10.70;99.90
15364;DHT22;7781;49.690;6.472;2022-11-04T10:02:26;10.70;99.90
15364;DHT22;7781;49.690;6.472;2022-11-04T10:05:04;10.80;99.90
15364;DHT22;7781;49.690;6.472;2022-11-04T10:07:47;10.80;99.90
15364;DHT22;7781;49.690;6.472;2022-11-04T10:10:23;10.80;99.90
15364;DHT22;7781;49.690;6.472;2022-11-04T10:13:05;10.70;99.90
15364;DHT22;7781;49.690;6.472;2022-11-04T10:15:49;10.70;99.90
15364;DHT22;7781;49.690;6.472;2022-11-04T10:18:33;10.70;99.90
15364;DHT22;7781;49.690;6.472;2022-11-04T10:21:14;10.70;99.90
15364;DHT22;7781;49.690;6.472;2022-11-04T10:23:57;10.60;99.90
15364;DHT22;7781;49.690;6.472;2022-11-04T10:26:30;10.60;99.90
15364;DHT22;7781;49.690;6.472;2022-11-04T10:29:03;10.60;99.90
15364;DHT22;7781;49.690;6.472;2022-11-04T10:31:36;10.60;99.90
15364;DHT22;7781;49.690;6.472;2022-11-04T10:34:11;10.60;99.90
15364;DHT22;7781;49.690;6.472;2022-11-04T10:36:42;10.60;99.90
15364;DHT22;7781;49.690;6.472;2022-11-04T10:39:21;10.70;99.90
15364;DHT22;7781;49.690;6.472;2022-11-04T10:41:51;10.70;99.90
15364;DHT22;7781;49.690;6.472;2022-11-04T10:44:22;10.80;99.90
15364;DHT22;7781;49.690;6.472;2022-11-04T10:46:55;10.90;99.90
15364;DHT22;7781;49.690;6.472;2022-11-04T10:49:43;11.00;99.90
15364;DHT22;7781;49.690;6.472;2022-11-04T10:52:35;11.00;99.90
15364;DHT22;7781;49.690;6.472;2022-11-04T10:55:13;11.00;99.90
15364;DHT22;7781;49.690;6.472;2022-11-04T10:57:42;10.90;99.90
15364;DHT22;7781;49.690;6.472;2022-11-04T11:00:34;11.00;99.90
15364;DHT22;7781;49.690;6.472;2022-11-04T11:03:22;11.00;99.90
15364;DHT22;7781;49.690;6.472;2022-11-04T11:05:52;11.00;99.90
15364;DHT22;7781;49.690;6.472;2022-11-04T11:08:30;11.00;99.90
15364;DHT22;7781;49.690;6.472;2022-11-04T11:10:59;11.00;99.90
15364;DHT22;7781;49.690;6.472;2022-11-04T11:13:34;11.00;99.90
15364;DHT22;7781;49.690;6.472;2022-11-04T11:16:08;11.00;99.90
15364;DHT22;7781;49.690;6.472;2022-11-04T11:18:39;11.00;99.90
15364;DHT22;7781;49.690;6.472;2022-11-04T11:21:14;11.10;99.90
15364;DHT22;7781;49.690;6.472;2022-11-04T11:23:47;11.10;99.90
15364;DHT22;7781;49.690;6.472;2022-11-04T11:26:18;11.00;99.90
15364;DHT22;7781;49.690;6.472;2022-11-04T11:28:50;11.10;99.90
15364;DHT22;7781;49.690;6.472;2022-11-04T11:31:24;11.10;99.90
15364;DHT22;7781;49.690;6.472;2022-11-04T11:33:54;11.10;99.90
15364;DHT22;7781;49.690;6.472;2022-11-04T11:36:26;11.10;99.90
15364;DHT22;7781;49.690;6.472;2022-11-04T11:39:00;11.20;99.90
15364;DHT22;7781;49.690;6.472;2022-11-04T11:41:30;11.10;99.90
15364;DHT22;7781;49.690;6.472;2022-11-04T11:44:05;11.00;99.90
15364;DHT22;7781;49.690;6.472;2022-11-04T11:46:35;11.00;99.90
15364;DHT22;7781;49.690;6.472;2022-11-04T11:49:22;11.00;99.90
15364;DHT22;7781;49.690;6.472;2022-11-04T11:51:52;11.00;99.90
15364;DHT22;7781;49.690;6.472;2022-11-04T11:54:28;11.10;99.90
15364;DHT22;7781;49.690;6.472;2022-11-04T11:57:01;11.10;99.90
15364;DHT22;7781;49.690;6.472;2022-11-04T11:59:46;11.10;99.90
15364;DHT22;7781;49.690;6.472;2022-11-04T12:02:44;11.10;99.90
15364;DHT22;7781;49.690;6.472;2022-11-04T12:05:15;11.10;99.90
15364;DHT22;7781;49.690;6.472;2022-11-04T12:08:22;11.20;99.90
15364;DHT22;7781;49.690;6.472;2022-11-04T12:11:19;11.20;99.90
15364;DHT22;7781;49.690;6.472;2022-11-04T12:13:53;11.30;99.90
15364;DHT22;7781;49.690;6.472;2022-11-04T12:16:30;11.30;99.90
15364;DHT22;7781;49.690;6.472;2022-11-04T12:19:14;11.20;99.90
15364;DHT22;7781;49.690;6.472;2022-11-04T12:21:53;11.30;99.90
15364;DHT22;7781;49.690;6.472;2022-11-04T12:24:33;11.40;99.90
15364;DHT22;7781;49.690;6.472;2022-11-04T12:27:07;11.50;99.90
15364;DHT22;7781;49.690;6.472;2022-11-04T12:29:55;11.50;99.90
15364;DHT22;7781;49.690;6.472;2022-11-04T12:32:47;11.50;99.90
15364;DHT22;7781;49.690;6.472;2022-11-04T12:35:28;11.60;99.90
15364;DHT22;7781;49.690;6.472;2022-11-04T12:38:11;11.70;99.90
15364;DHT22;7781;49.690;6.472;2022-11-04T12:40:50;11.70;99.90
15364;DHT22;7781;49.690;6.472;2022-11-04T12:43:48;11.70;99.90
15364;DHT22;7781;49.690;6.472;2022-11-04T12:46:23;11.80;99.90
15364;DHT22;7781;49.690;6.472;2022-11-04T12:49:17;11.90;99.90
15364;DHT22;7781;49.690;6.472;2022-11-04T12:51:53;12.00;99.90
15364;DHT22;7781;49.690;6.472;2022-11-04T12:54:38;12.10;99.90
15364;DHT22;7781;49.690;6.472;2022-11-04T12:57:17;12.10;99.90
15364;DHT22;7781;49.690;6.472;2022-11-04T13:00:02;12.20;99.90
15364;DHT22;7781;49.690;6.472;2022-11-04T13:02:36;12.20;99.90
15364;DHT22;7781;49.690;6.472;2022-11-04T13:05:14;12.30;99.90
15364;DHT22;7781;49.690;6.472;2022-11-04T13:07:49;12.40;99.90
15364;DHT22;7781;49.690;6.472;2022-11-04T13:10:23;12.80;99.90
15364;DHT22;7781;49.690;6.472;2022-11-04T13:12:55;12.90;99.90
15364;DHT22;7781;49.690;6.472;2022-11-04T13:15:28;12.90;99.90
15364;DHT22;7781;49.690;6.472;2022-11-04T13:17:59;12.90;99.90
15364;DHT22;7781;49.690;6.472;2022-11-04T13:20:31;13.00;99.90
15364;DHT22;7781;49.690;6.472;2022-11-04T13:23:04;13.30;99.90
15364;DHT22;7781;49.690;6.472;2022-11-04T13:25:39;13.50;99.90
15364;DHT22;7781;49.690;6.472;2022-11-04T13:28:10;13.70;99.90
15364;DHT22;7781;49.690;6.472;2022-11-04T13:30:44;13.50;99.90
15364;DHT22;7781;49.690;6.472;2022-11-04T13:33:23;13.30;99.90
15364;DHT22;7781;49.690;6.472;2022-11-04T13:35:58;13.10;99.90
15364;DHT22;7781;49.690;6.472;2022-11-04T13:38:31;13.00;99.90
15364;DHT22;7781;49.690;6.472;2022-11-04T13:41:23;12.90;99.90
15364;DHT22;7781;49.690;6.472;2022-11-04T13:43:57;12.90;99.90
15364;DHT22;7781;49.690;6.472;2022-11-04T13:46:28;12.90;99.90
15364;DHT22;7781;49.690;6.472;2022-11-04T13:49:02;12.80;99.90
15364;DHT22;7781;49.690;6.472;2022-11-04T13:51:39;12.80;99.90
15364;DHT22;7781;49.690;6.472;2022-11-04T13:54:24;12.70;99.90
15364;DHT22;7781;49.690;6.472;2022-11-04T13:57:03;12.70;99.90
15364;DHT22;7781;49.690;6.472;2022-11-04T13:59:34;12.70;99.90
15364;DHT22;7781;49.690;6.472;2022-11-04T14:02:22;12.60;99.90
15364;DHT22;7781;49.690;6.472;2022-11-04T14:04:51;12.60;99.90
15364;DHT22;7781;49.690;6.472;2022-11-04T14:10:42;12.40;99.90
15364;DHT22;7781;49.690;6.472;2022-11-04T14:16:42;12.20;99.90
15364;DHT22;7781;49.690;6.472;2022-11-04T14:22:30;11.90;99.90
15364;DHT22;7781;49.690;6.472;2022-11-04T14:25:01;11.70;99.90
15364;DHT22;7781;49.690;6.472;2022-11-04T14:27:37;11.60;99.90
15364;DHT22;7781;49.690;6.472;2022-11-04T14:30:25;11.50;99.90
15364;DHT22;7781;49.690;6.472;2022-11-04T14:32:57;11.40;99.90
15364;DHT22;7781;49.690;6.472;2022-11-04T14:35:27;11.20;99.90
15364;DHT22;7781;49.690;6.472;2022-11-04T14:38:03;11.10;99.90
15364;DHT22;7781;49.690;6.472;2022-11-04T14:40:48;11.00;99.90
15364;DHT22;7781;49.690;6.472;2022-11-04T14:43:25;10.80;99.90
15364;DHT22;7781;49.690;6.472;2022-11-04T14:45:58;10.70;99.90
15364;DHT22;7781;49.690;6.472;2022-11-04T14:48:29;10.60;99.90
15364;DHT22;7781;49.690;6.472;2022-11-04T14:50:57;10.60;99.90
15364;DHT22;7781;49.690;6.472;2022-11-04T14:53:30;10.60;99.90
15364;DHT22;7781;49.690;6.472;2022-11-04T14:56:03;10.60;99.90
15364;DHT22;7781;49.690;6.472;2022-11-04T14:58:32;10.50;99.90
15364;DHT22;7781;49.690;6.472;2022-11-04T15:01:02;10.50;99.90
15364;DHT22;7781;49.690;6.472;2022-11-04T15:03:34;10.40;99.90
15364;DHT22;7781;49.690;6.472;2022-11-04T15:06:25;10.50;99.90
15364;DHT22;7781;49.690;6.472;2022-11-04T15:09:21;10.50;99.90
15364;DHT22;7781;49.690;6.472;2022-11-04T15:11:51;10.40;99.90
15364;DHT22;7781;49.690;6.472;2022-11-04T15:14:37;10.40;99.90
15364;DHT22;7781;49.690;6.472;2022-11-04T15:17:06;10.40;99.90
15364;DHT22;7781;49.690;6.472;2022-11-04T15:19:36;10.50;99.90
15364;DHT22;7781;49.690;6.472;2022-11-04T15:22:05;10.50;99.90
15364;DHT22;7781;49.690;6.472;2022-11-04T15:24:34;10.50;99.90
15364;DHT22;7781;49.690;6.472;2022-11-04T15:27:04;10.50;99.90
15364;DHT22;7781;49.690;6.472;2022-11-04T15:29:33;10.50;99.90
15364;DHT22;7781;49.690;6.472;2022-11-04T15:32:03;10.50;99.90
15364;DHT22;7781;49.690;6.472;2022-11-04T15:34:32;10.50;99.90
15364;DHT22;7781;49.690;6.472;2022-11-04T15:37:04;10.50;99.90
15364;DHT22;7781;49.690;6.472;2022-11-04T15:39:35;10.50;99.90
15364;DHT22;7781;49.690;6.472;2022-11-04T15:42:06;10.50;99.90
15364;DHT22;7781;49.690;6.472;2022-11-04T15:44:55;10.50;99.90
15364;DHT22;7781;49.690;6.472;2022-11-04T15:47:24;10.40;99.90
15364;DHT22;7781;49.690;6.472;2022-11-04T15:50:01;10.40;99.90
15364;DHT22;7781;49.690;6.472;2022-11-04T15:52:32;10.30;99.90
15364;DHT22;7781;49.690;6.472;2022-11-04T15:55:00;10.30;99.90
15364;DHT22;7781;49.690;6.472;2022-11-04T15:57:31;10.30;99.90
15364;DHT22;7781;49.690;6.472;2022-11-04T16:00:02;10.20;99.90
15364;DHT22;7781;49.690;6.472;2022-11-04T16:02:44;10.30;99.90
15364;DHT22;7781;49.690;6.472;2022-11-04T16:05:24;10.20;99.90
15364;DHT22;7781;49.690;6.472;2022-11-04T16:07:55;10.20;99.90
15364;DHT22;7781;49.690;6.472;2022-11-04T16:10:42;10.10;99.90
15364;DHT22;7781;49.690;6.472;2022-11-04T16:13:21;10.10;99.90
15364;DHT22;7781;49.690;6.472;2022-11-04T16:15:51;10.10;99.90
15364;DHT22;7781;49.690;6.472;2022-11-04T16:18:36;10.00;99.90
15364;DHT22;7781;49.690;6.472;2022-11-04T16:21:07;10.00;99.90
15364;DHT22;7781;49.690;6.472;2022-11-04T16:27:09;9.90;99.90
15364;DHT22;7781;49.690;6.472;2022-11-04T16:29:38;9.80;99.90
15364;DHT22;7781;49.690;6.472;2022-11-04T16:32:22;9.80;99.90
15364;DHT22;7781;49.690;6.472;2022-11-04T16:34:56;9.80;99.90
15364;DHT22;7781;49.690;6.472;2022-11-04T16:37:25;9.70;99.90
15364;DHT22;7781;49.690;6.472;2022-11-04T16:45:50;9.70;99.90
15364;DHT22;7781;49.690;6.472;2022-11-04T16:48:20;9.70;99.90
15364;DHT22;7781;49.690;6.472;2022-11-04T16:50:53;9.70;99.90
15364;DHT22;7781;49.690;6.472;2022-11-04T16:53:22;9.70;99.90
15364;DHT22;7781;49.690;6.472;2022-11-04T16:55:52;9.70;99.90
15364;DHT22;7781;49.690;6.472;2022-11-04T16:58:22;9.70;99.90
15364;DHT22;7781;49.690;6.472;2022-11-04T17:00:52;9.70;99.90